Alexander, Kansas
Current Conditions -  °F | °C
As of 10:15 AM on Friday 24 Oct 2014 (Local Time) from KHYS Reporting Station
Clear Clear  
Wind Chill: 16°   Ceiling: Unl
Heat Index: 16°   Visibility: 5mi
Dew Point: 12°   Wind: 7mph
Humidity: 77%   Direction: 230°SW
Pressure: 30.04"   Gusts: NA
Location:  38.47°N, 99.55°W
Report Text: KHYS 241515Z AUTO 23006KT 5SM CLR 16/12 A3004 RMK AO1
Loading
Personal Weather Stations






























Interactive Weather Map
Tropical Storm Tracking
New forecast layout! Learn more

10-Day Weather Forecast

Advertisements
Track Severe Weather on mobile